sensor_id;sensor_type;location;lat;lon;timestamp;P1;durP1;ratioP1;P2;durP2;ratioP2
55009;SDS011;40903;51.638;7.528;2022-07-29T00:01:58;10.23;;;1.60;;
55009;SDS011;40903;51.638;7.528;2022-07-29T00:04:24;4.97;;;1.50;;
55009;SDS011;40903;51.638;7.528;2022-07-29T00:06:49;4.07;;;1.40;;
55009;SDS011;40903;51.638;7.528;2022-07-29T00:09:14;5.03;;;1.40;;
55009;SDS011;40903;51.638;7.528;2022-07-29T00:11:40;5.73;;;1.60;;
55009;SDS011;40903;51.638;7.528;2022-07-29T00:14:05;6.90;;;1.60;;
55009;SDS011;40903;51.638;7.528;2022-07-29T00:16:31;5.93;;;1.43;;
55009;SDS011;40903;51.638;7.528;2022-07-29T00:18:56;3.47;;;1.60;;
55009;SDS011;40903;51.638;7.528;2022-07-29T00:21:21;3.30;;;1.53;;
55009;SDS011;40903;51.638;7.528;2022-07-29T00:23:46;2.87;;;1.23;;
55009;SDS011;40903;51.638;7.528;2022-07-29T00:26:12;3.63;;;1.53;;
55009;SDS011;40903;51.638;7.528;2022-07-29T00:28:37;3.63;;;1.30;;
55009;SDS011;40903;51.638;7.528;2022-07-29T00:31:02;4.87;;;1.57;;
55009;SDS011;40903;51.638;7.528;2022-07-29T00:33:28;4.17;;;1.47;;
55009;SDS011;40903;51.638;7.528;2022-07-29T00:35:54;4.87;;;1.30;;
55009;SDS011;40903;51.638;7.528;2022-07-29T00:38:19;5.17;;;1.40;;
55009;SDS011;40903;51.638;7.528;2022-07-29T00:40:47;2.70;;;1.40;;
55009;SDS011;40903;51.638;7.528;2022-07-29T00:43:13;2.80;;;1.50;;
55009;SDS011;40903;51.638;7.528;2022-07-29T00:45:39;5.73;;;1.40;;
55009;SDS011;40903;51.638;7.528;2022-07-29T00:48:06;5.67;;;1.47;;
55009;SDS011;40903;51.638;7.528;2022-07-29T00:50:33;3.80;;;1.50;;
55009;SDS011;40903;51.638;7.528;2022-07-29T00:52:59;4.13;;;1.37;;
55009;SDS011;40903;51.638;7.528;2022-07-29T00:55:25;4.13;;;1.57;;
55009;SDS011;40903;51.638;7.528;2022-07-29T00:57:51;6.77;;;1.37;;
55009;SDS011;40903;51.638;7.528;2022-07-29T01:00:19;7.63;;;1.70;;
55009;SDS011;40903;51.638;7.528;2022-07-29T01:02:47;4.80;;;1.77;;
55009;SDS011;40903;51.638;7.528;2022-07-29T01:05:20;3.30;;;1.13;;
55009;SDS011;40903;51.638;7.528;2022-07-29T01:07:48;2.53;;;1.30;;
55009;SDS011;40903;51.638;7.528;2022-07-29T01:10:16;2.00;;;1.30;;
55009;SDS011;40903;51.638;7.528;2022-07-29T01:12:43;3.33;;;1.20;;
55009;SDS011;40903;51.638;7.528;2022-07-29T01:15:11;3.00;;;1.40;;
55009;SDS011;40903;51.638;7.528;2022-07-29T01:17:50;2.57;;;1.43;;
55009;SDS011;40903;51.638;7.528;2022-07-29T01:34:09;4.00;;;1.67;;
55009;SDS011;40903;51.638;7.528;2022-07-29T01:36:47;4.17;;;1.40;;
55009;SDS011;40903;51.638;7.528;2022-07-29T01:39:17;2.30;;;1.10;;
55009;SDS011;40903;51.638;7.528;2022-07-29T01:41:48;4.20;;;1.40;;
55009;SDS011;40903;51.638;7.528;2022-07-29T01:44:27;4.23;;;1.60;;
55009;SDS011;40903;51.638;7.528;2022-07-29T01:46:58;4.40;;;2.20;;
55009;SDS011;40903;51.638;7.528;2022-07-29T01:49:29;4.37;;;1.50;;
55009;SDS011;40903;51.638;7.528;2022-07-29T01:51:59;3.53;;;1.53;;
55009;SDS011;40903;51.638;7.528;2022-07-29T01:54:40;5.23;;;1.73;;
55009;SDS011;40903;51.638;7.528;2022-07-29T01:57:08;3.90;;;1.53;;
55009;SDS011;40903;51.638;7.528;2022-07-29T01:59:36;1.60;;;1.30;;
55009;SDS011;40903;51.638;7.528;2022-07-29T02:02:03;4.80;;;1.77;;
55009;SDS011;40903;51.638;7.528;2022-07-29T02:04:31;2.27;;;1.33;;
55009;SDS011;40903;51.638;7.528;2022-07-29T02:07:01;3.70;;;1.53;;
55009;SDS011;40903;51.638;7.528;2022-07-29T02:09:33;2.10;;;1.40;;
55009;SDS011;40903;51.638;7.528;2022-07-29T02:12:01;3.30;;;1.40;;
55009;SDS011;40903;51.638;7.528;2022-07-29T02:14:28;3.17;;;1.37;;
55009;SDS011;40903;51.638;7.528;2022-07-29T02:17:06;4.10;;;1.50;;
55009;SDS011;40903;51.638;7.528;2022-07-29T02:19:33;4.63;;;1.40;;
55009;SDS011;40903;51.638;7.528;2022-07-29T02:22:01;4.17;;;1.37;;
55009;SDS011;40903;51.638;7.528;2022-07-29T02:24:29;4.83;;;1.60;;
55009;SDS011;40903;51.638;7.528;2022-07-29T02:26:56;2.47;;;1.30;;
55009;SDS011;40903;51.638;7.528;2022-07-29T02:29:24;2.93;;;1.50;;
55009;SDS011;40903;51.638;7.528;2022-07-29T02:31:51;3.73;;;1.30;;
55009;SDS011;40903;51.638;7.528;2022-07-29T02:34:18;3.13;;;1.40;;
55009;SDS011;40903;51.638;7.528;2022-07-29T02:36:45;3.90;;;1.73;;
55009;SDS011;40903;51.638;7.528;2022-07-29T02:39:12;3.60;;;1.60;;
55009;SDS011;40903;51.638;7.528;2022-07-29T02:41:41;3.93;;;1.40;;
55009;SDS011;40903;51.638;7.528;2022-07-29T02:44:10;3.60;;;1.43;;
55009;SDS011;40903;51.638;7.528;2022-07-29T02:46:38;2.73;;;1.40;;
55009;SDS011;40903;51.638;7.528;2022-07-29T02:49:13;3.40;;;1.67;;
55009;SDS011;40903;51.638;7.528;2022-07-29T02:51:58;2.37;;;1.17;;
55009;SDS011;40903;51.638;7.528;2022-07-29T02:57:27;4.67;;;1.50;;
55009;SDS011;40903;51.638;7.528;2022-07-29T03:00:07;3.00;;;1.37;;
55009;SDS011;40903;51.638;7.528;2022-07-29T03:02:39;2.47;;;1.30;;
55009;SDS011;40903;51.638;7.528;2022-07-29T03:05:09;3.17;;;1.47;;
55009;SDS011;40903;51.638;7.528;2022-07-29T03:07:38;3.47;;;1.60;;
55009;SDS011;40903;51.638;7.528;2022-07-29T03:10:06;3.67;;;1.43;;
55009;SDS011;40903;51.638;7.528;2022-07-29T03:12:33;5.50;;;1.40;;
55009;SDS011;40903;51.638;7.528;2022-07-29T03:14:58;4.63;;;2.17;;
55009;SDS011;40903;51.638;7.528;2022-07-29T03:17:25;5.90;;;1.60;;
55009;SDS011;40903;51.638;7.528;2022-07-29T03:19:51;4.60;;;1.63;;
55009;SDS011;40903;51.638;7.528;2022-07-29T03:22:16;3.53;;;1.60;;
55009;SDS011;40903;51.638;7.528;2022-07-29T03:24:42;4.00;;;1.60;;
55009;SDS011;40903;51.638;7.528;2022-07-29T03:27:07;4.07;;;1.63;;
55009;SDS011;40903;51.638;7.528;2022-07-29T03:29:32;2.83;;;1.53;;
55009;SDS011;40903;51.638;7.528;2022-07-29T03:31:58;3.13;;;1.90;;
55009;SDS011;40903;51.638;7.528;2022-07-29T03:34:23;3.07;;;1.60;;
55009;SDS011;40903;51.638;7.528;2022-07-29T03:36:49;3.53;;;1.50;;
55009;SDS011;40903;51.638;7.528;2022-07-29T03:39:15;1.83;;;1.47;;
55009;SDS011;40903;51.638;7.528;2022-07-29T03:41:44;4.03;;;1.60;;
55009;SDS011;40903;51.638;7.528;2022-07-29T03:44:12;3.37;;;1.53;;
55009;SDS011;40903;51.638;7.528;2022-07-29T03:46:40;4.90;;;1.80;;
55009;SDS011;40903;51.638;7.528;2022-07-29T03:49:08;2.60;;;1.60;;
55009;SDS011;40903;51.638;7.528;2022-07-29T03:51:35;2.57;;;1.30;;
55009;SDS011;40903;51.638;7.528;2022-07-29T03:54:02;8.07;;;1.73;;
55009;SDS011;40903;51.638;7.528;2022-07-29T03:56:29;2.80;;;1.20;;
55009;SDS011;40903;51.638;7.528;2022-07-29T03:58:56;6.03;;;1.50;;
55009;SDS011;40903;51.638;7.528;2022-07-29T04:01:22;2.33;;;1.30;;
55009;SDS011;40903;51.638;7.528;2022-07-29T04:03:49;4.47;;;2.23;;
55009;SDS011;40903;51.638;7.528;2022-07-29T04:06:15;2.07;;;1.37;;
55009;SDS011;40903;51.638;7.528;2022-07-29T04:08:40;3.87;;;1.60;;
55009;SDS011;40903;51.638;7.528;2022-07-29T04:11:05;3.33;;;1.57;;
55009;SDS011;40903;51.638;7.528;2022-07-29T04:13:31;3.80;;;1.40;;
55009;SDS011;40903;51.638;7.528;2022-07-29T04:15:57;3.37;;;1.40;;
55009;SDS011;40903;51.638;7.528;2022-07-29T04:18:23;4.60;;;2.27;;
55009;SDS011;40903;51.638;7.528;2022-07-29T04:20:49;3.17;;;1.30;;
55009;SDS011;40903;51.638;7.528;2022-07-29T04:23:15;3.87;;;1.60;;
55009;SDS011;40903;51.638;7.528;2022-07-29T04:25:41;1.77;;;1.50;;
55009;SDS011;40903;51.638;7.528;2022-07-29T04:28:06;3.53;;;1.40;;
55009;SDS011;40903;51.638;7.528;2022-07-29T04:30:33;3.53;;;1.40;;
55009;SDS011;40903;51.638;7.528;2022-07-29T04:33:03;1.83;;;1.40;;
55009;SDS011;40903;51.638;7.528;2022-07-29T04:35:30;2.07;;;1.30;;
55009;SDS011;40903;51.638;7.528;2022-07-29T04:37:59;4.70;;;1.50;;
55009;SDS011;40903;51.638;7.528;2022-07-29T04:40:24;4.30;;;2.30;;
55009;SDS011;40903;51.638;7.528;2022-07-29T04:42:49;1.40;;;1.27;;
55009;SDS011;40903;51.638;7.528;2022-07-29T04:45:15;2.77;;;1.60;;
55009;SDS011;40903;51.638;7.528;2022-07-29T04:47:40;4.40;;;1.70;;
55009;SDS011;40903;51.638;7.528;2022-07-29T04:50:06;3.03;;;1.53;;
55009;SDS011;40903;51.638;7.528;2022-07-29T04:52:32;3.53;;;1.63;;
55009;SDS011;40903;51.638;7.528;2022-07-29T04:54:58;3.37;;;1.50;;
55009;SDS011;40903;51.638;7.528;2022-07-29T04:57:24;4.60;;;2.00;;
55009;SDS011;40903;51.638;7.528;2022-07-29T04:59:49;3.90;;;1.53;;
55009;SDS011;40903;51.638;7.528;2022-07-29T05:02:14;8.00;;;1.63;;
55009;SDS011;40903;51.638;7.528;2022-07-29T05:04:40;2.07;;;1.53;;
55009;SDS011;40903;51.638;7.528;2022-07-29T05:07:05;3.37;;;1.53;;
55009;SDS011;40903;51.638;7.528;2022-07-29T05:09:30;4.73;;;1.57;;
55009;SDS011;40903;51.638;7.528;2022-07-29T05:11:57;5.70;;;1.90;;
55009;SDS011;40903;51.638;7.528;2022-07-29T05:14:22;4.60;;;1.70;;
55009;SDS011;40903;51.638;7.528;2022-07-29T05:16:48;3.17;;;1.50;;
55009;SDS011;40903;51.638;7.528;2022-07-29T05:19:15;3.67;;;1.97;;
55009;SDS011;40903;51.638;7.528;2022-07-29T05:21:41;4.97;;;1.90;;
55009;SDS011;40903;51.638;7.528;2022-07-29T05:24:06;3.87;;;1.60;;
55009;SDS011;40903;51.638;7.528;2022-07-29T05:26:32;3.73;;;1.60;;
55009;SDS011;40903;51.638;7.528;2022-07-29T05:28:58;3.97;;;1.60;;
55009;SDS011;40903;51.638;7.528;2022-07-29T05:31:23;2.60;;;1.47;;
55009;SDS011;40903;51.638;7.528;2022-07-29T05:33:48;2.63;;;1.50;;
55009;SDS011;40903;51.638;7.528;2022-07-29T05:36:14;3.67;;;1.60;;
55009;SDS011;40903;51.638;7.528;2022-07-29T05:38:39;2.60;;;1.60;;
55009;SDS011;40903;51.638;7.528;2022-07-29T05:41:04;5.87;;;1.77;;
55009;SDS011;40903;51.638;7.528;2022-07-29T05:43:31;3.30;;;1.73;;
55009;SDS011;40903;51.638;7.528;2022-07-29T05:45:56;4.10;;;1.60;;
55009;SDS011;40903;51.638;7.528;2022-07-29T05:48:22;4.53;;;1.80;;
55009;SDS011;40903;51.638;7.528;2022-07-29T05:50:47;5.60;;;1.80;;
55009;SDS011;40903;51.638;7.528;2022-07-29T05:53:13;3.17;;;1.60;;
55009;SDS011;40903;51.638;7.528;2022-07-29T05:55:38;3.00;;;1.80;;
55009;SDS011;40903;51.638;7.528;2022-07-29T05:58:03;5.17;;;1.73;;
55009;SDS011;40903;51.638;7.528;2022-07-29T06:00:29;6.50;;;2.40;;
55009;SDS011;40903;51.638;7.528;2022-07-29T06:02:55;2.60;;;1.70;;
55009;SDS011;40903;51.638;7.528;2022-07-29T06:05:20;3.27;;;1.73;;
55009;SDS011;40903;51.638;7.528;2022-07-29T06:07:45;4.77;;;1.80;;
55009;SDS011;40903;51.638;7.528;2022-07-29T06:10:10;5.00;;;1.80;;
55009;SDS011;40903;51.638;7.528;2022-07-29T06:12:36;4.67;;;1.90;;
55009;SDS011;40903;51.638;7.528;2022-07-29T06:15:01;7.33;;;2.23;;
55009;SDS011;40903;51.638;7.528;2022-07-29T06:17:27;5.10;;;1.53;;
55009;SDS011;40903;51.638;7.528;2022-07-29T06:19:52;2.57;;;1.50;;
55009;SDS011;40903;51.638;7.528;2022-07-29T06:22:17;3.50;;;1.80;;
55009;SDS011;40903;51.638;7.528;2022-07-29T06:24:43;2.93;;;1.73;;
55009;SDS011;40903;51.638;7.528;2022-07-29T06:27:11;2.73;;;1.70;;
55009;SDS011;40903;51.638;7.528;2022-07-29T06:29:37;2.40;;;1.53;;
55009;SDS011;40903;51.638;7.528;2022-07-29T06:32:02;3.33;;;1.50;;
55009;SDS011;40903;51.638;7.528;2022-07-29T06:34:28;3.63;;;1.47;;
55009;SDS011;40903;51.638;7.528;2022-07-29T06:36:53;4.87;;;1.73;;
55009;SDS011;40903;51.638;7.528;2022-07-29T06:39:19;3.50;;;1.63;;
55009;SDS011;40903;51.638;7.528;2022-07-29T06:41:48;4.17;;;1.47;;
55009;SDS011;40903;51.638;7.528;2022-07-29T06:44:14;3.17;;;1.70;;
55009;SDS011;40903;51.638;7.528;2022-07-29T06:46:40;3.07;;;1.37;;
55009;SDS011;40903;51.638;7.528;2022-07-29T06:49:06;2.50;;;1.53;;
55009;SDS011;40903;51.638;7.528;2022-07-29T06:51:32;2.37;;;1.60;;
55009;SDS011;40903;51.638;7.528;2022-07-29T06:53:57;2.37;;;1.40;;
55009;SDS011;40903;51.638;7.528;2022-07-29T06:56:23;2.50;;;1.47;;
55009;SDS011;40903;51.638;7.528;2022-07-29T06:58:49;3.17;;;1.73;;
55009;SDS011;40903;51.638;7.528;2022-07-29T07:01:15;3.33;;;1.77;;
55009;SDS011;40903;51.638;7.528;2022-07-29T07:03:40;1.90;;;1.43;;
55009;SDS011;40903;51.638;7.528;2022-07-29T07:06:07;3.57;;;1.30;;
55009;SDS011;40903;51.638;7.528;2022-07-29T07:08:32;2.93;;;1.60;;
55009;SDS011;40903;51.638;7.528;2022-07-29T07:10:58;3.17;;;1.57;;
55009;SDS011;40903;51.638;7.528;2022-07-29T07:13:23;4.57;;;1.67;;
55009;SDS011;40903;51.638;7.528;2022-07-29T07:15:49;2.57;;;1.57;;
55009;SDS011;40903;51.638;7.528;2022-07-29T07:18:16;5.20;;;1.70;;
55009;SDS011;40903;51.638;7.528;2022-07-29T07:20:42;5.10;;;1.97;;
55009;SDS011;40903;51.638;7.528;2022-07-29T07:23:08;3.97;;;2.00;;
55009;SDS011;40903;51.638;7.528;2022-07-29T07:25:33;5.67;;;1.67;;
55009;SDS011;40903;51.638;7.528;2022-07-29T07:27:58;2.30;;;1.33;;
55009;SDS011;40903;51.638;7.528;2022-07-29T07:30:24;3.40;;;1.60;;
55009;SDS011;40903;51.638;7.528;2022-07-29T07:32:49;3.83;;;2.00;;
55009;SDS011;40903;51.638;7.528;2022-07-29T07:35:15;2.30;;;1.40;;
55009;SDS011;40903;51.638;7.528;2022-07-29T07:37:40;3.73;;;2.10;;
55009;SDS011;40903;51.638;7.528;2022-07-29T07:40:06;4.07;;;1.97;;
55009;SDS011;40903;51.638;7.528;2022-07-29T07:42:33;4.13;;;1.60;;
55009;SDS011;40903;51.638;7.528;2022-07-29T07:44:58;4.97;;;1.50;;
55009;SDS011;40903;51.638;7.528;2022-07-29T07:47:24;3.20;;;1.47;;
55009;SDS011;40903;51.638;7.528;2022-07-29T07:49:50;4.70;;;1.73;;
55009;SDS011;40903;51.638;7.528;2022-07-29T07:52:16;3.57;;;1.70;;
55009;SDS011;40903;51.638;7.528;2022-07-29T07:54:43;5.37;;;1.80;;
55009;SDS011;40903;51.638;7.528;2022-07-29T07:57:10;4.13;;;1.83;;
55009;SDS011;40903;51.638;7.528;2022-07-29T07:59:38;6.23;;;1.93;;
55009;SDS011;40903;51.638;7.528;2022-07-29T08:02:04;5.43;;;2.00;;
55009;SDS011;40903;51.638;7.528;2022-07-29T08:04:30;9.33;;;1.60;;
55009;SDS011;40903;51.638;7.528;2022-07-29T08:06:56;4.63;;;1.53;;
55009;SDS011;40903;51.638;7.528;2022-07-29T08:09:22;3.57;;;1.70;;
55009;SDS011;40903;51.638;7.528;2022-07-29T08:11:50;4.53;;;1.60;;
55009;SDS011;40903;51.638;7.528;2022-07-29T08:14:15;5.57;;;2.07;;
55009;SDS011;40903;51.638;7.528;2022-07-29T08:16:40;3.70;;;1.80;;
55009;SDS011;40903;51.638;7.528;2022-07-29T08:19:07;4.60;;;1.77;;
55009;SDS011;40903;51.638;7.528;2022-07-29T08:21:32;3.23;;;1.50;;
55009;SDS011;40903;51.638;7.528;2022-07-29T08:23:57;3.67;;;1.57;;
55009;SDS011;40903;51.638;7.528;2022-07-29T08:26:42;2.90;;;1.30;;
55009;SDS011;40903;51.638;7.528;2022-07-29T08:29:08;4.73;;;1.70;;
55009;SDS011;40903;51.638;7.528;2022-07-29T08:31:35;1.57;;;1.40;;
55009;SDS011;40903;51.638;7.528;2022-07-29T08:34:01;4.40;;;1.87;;
55009;SDS011;40903;51.638;7.528;2022-07-29T08:36:28;3.63;;;1.90;;
55009;SDS011;40903;51.638;7.528;2022-07-29T08:38:53;3.00;;;2.13;;
55009;SDS011;40903;51.638;7.528;2022-07-29T08:41:19;2.03;;;1.37;;
55009;SDS011;40903;51.638;7.528;2022-07-29T08:43:45;4.63;;;1.67;;
55009;SDS011;40903;51.638;7.528;2022-07-29T08:46:11;2.63;;;1.60;;
55009;SDS011;40903;51.638;7.528;2022-07-29T08:48:37;3.07;;;1.47;;
55009;SDS011;40903;51.638;7.528;2022-07-29T08:51:03;4.67;;;1.63;;
55009;SDS011;40903;51.638;7.528;2022-07-29T08:53:31;5.03;;;1.80;;
55009;SDS011;40903;51.638;7.528;2022-07-29T08:55:57;4.97;;;1.70;;
55009;SDS011;40903;51.638;7.528;2022-07-29T08:58:23;3.77;;;1.67;;
55009;SDS011;40903;51.638;7.528;2022-07-29T09:00:53;3.50;;;1.70;;
55009;SDS011;40903;51.638;7.528;2022-07-29T09:03:20;4.93;;;1.90;;
55009;SDS011;40903;51.638;7.528;2022-07-29T09:05:49;3.83;;;1.70;;
55009;SDS011;40903;51.638;7.528;2022-07-29T09:08:15;6.93;;;1.87;;
55009;SDS011;40903;51.638;7.528;2022-07-29T09:10:41;3.63;;;1.87;;
55009;SDS011;40903;51.638;7.528;2022-07-29T09:13:07;3.27;;;1.83;;
55009;SDS011;40903;51.638;7.528;2022-07-29T09:15:33;5.23;;;1.50;;
55009;SDS011;40903;51.638;7.528;2022-07-29T09:17:58;4.30;;;1.77;;
55009;SDS011;40903;51.638;7.528;2022-07-29T09:20:24;5.10;;;1.73;;
55009;SDS011;40903;51.638;7.528;2022-07-29T09:22:50;2.60;;;1.50;;
55009;SDS011;40903;51.638;7.528;2022-07-29T09:25:33;2.33;;;1.50;;
55009;SDS011;40903;51.638;7.528;2022-07-29T09:28:06;5.63;;;2.10;;
55009;SDS011;40903;51.638;7.528;2022-07-29T09:30:52;4.17;;;1.83;;
55009;SDS011;40903;51.638;7.528;2022-07-29T09:33:19;5.83;;;1.97;;
55009;SDS011;40903;51.638;7.528;2022-07-29T09:35:46;7.37;;;2.00;;
55009;SDS011;40903;51.638;7.528;2022-07-29T09:38:24;3.27;;;1.80;;
55009;SDS011;40903;51.638;7.528;2022-07-29T09:40:56;5.40;;;1.60;;
55009;SDS011;40903;51.638;7.528;2022-07-29T09:43:22;5.70;;;1.80;;
55009;SDS011;40903;51.638;7.528;2022-07-29T09:45:47;5.10;;;1.97;;
55009;SDS011;40903;51.638;7.528;2022-07-29T09:48:24;5.20;;;1.87;;
55009;SDS011;40903;51.638;7.528;2022-07-29T09:50:50;4.93;;;1.80;;
55009;SDS011;40903;51.638;7.528;2022-07-29T09:53:34;3.53;;;1.77;;
55009;SDS011;40903;51.638;7.528;2022-07-29T09:56:03;3.27;;;1.90;;
55009;SDS011;40903;51.638;7.528;2022-07-29T09:58:30;4.27;;;1.83;;
55009;SDS011;40903;51.638;7.528;2022-07-29T10:00:55;2.67;;;1.77;;
55009;SDS011;40903;51.638;7.528;2022-07-29T10:03:21;5.03;;;1.93;;
55009;SDS011;40903;51.638;7.528;2022-07-29T10:06:03;4.23;;;2.07;;
55009;SDS011;40903;51.638;7.528;2022-07-29T10:08:31;4.07;;;2.33;;
55009;SDS011;40903;51.638;7.528;2022-07-29T10:11:10;3.27;;;1.73;;
55009;SDS011;40903;51.638;7.528;2022-07-29T10:13:40;4.07;;;1.80;;
55009;SDS011;40903;51.638;7.528;2022-07-29T10:16:06;3.50;;;1.87;;
55009;SDS011;40903;51.638;7.528;2022-07-29T10:18:32;2.73;;;1.77;;
55009;SDS011;40903;51.638;7.528;2022-07-29T10:20:58;4.50;;;2.00;;
55009;SDS011;40903;51.638;7.528;2022-07-29T10:23:25;4.40;;;2.13;;
55009;SDS011;40903;51.638;7.528;2022-07-29T10:25:52;6.27;;;2.17;;
55009;SDS011;40903;51.638;7.528;2022-07-29T10:28:18;6.87;;;2.40;;
55009;SDS011;40903;51.638;7.528;2022-07-29T10:30:43;4.77;;;2.50;;
55009;SDS011;40903;51.638;7.528;2022-07-29T10:36:32;5.43;;;2.00;;
55009;SDS011;40903;51.638;7.528;2022-07-29T10:42:17;5.63;;;2.23;;
55009;SDS011;40903;51.638;7.528;2022-07-29T10:44:45;3.60;;;2.13;;
55009;SDS011;40903;51.638;7.528;2022-07-29T10:47:21;7.67;;;2.50;;
55009;SDS011;40903;51.638;7.528;2022-07-29T10:50:21;13.57;;;2.80;;
55009;SDS011;40903;51.638;7.528;2022-07-29T10:55:33;5.43;;;2.00;;
55009;SDS011;40903;51.638;7.528;2022-07-29T11:00:43;4.17;;;2.00;;
55009;SDS011;40903;51.638;7.528;2022-07-29T11:03:10;9.33;;;2.67;;
55009;SDS011;40903;51.638;7.528;2022-07-29T11:06:14;3.80;;;1.90;;
55009;SDS011;40903;51.638;7.528;2022-07-29T11:08:40;3.60;;;2.03;;
55009;SDS011;40903;51.638;7.528;2022-07-29T11:16:11;8.23;;;2.30;;
55009;SDS011;40903;51.638;7.528;2022-07-29T11:18:41;3.30;;;2.03;;
55009;SDS011;40903;51.638;7.528;2022-07-29T11:21:37;29.00;;;6.70;;
55009;SDS011;40903;51.638;7.528;2022-07-29T11:24:13;6.73;;;3.30;;
55009;SDS011;40903;51.638;7.528;2022-07-29T11:26:40;4.20;;;2.43;;
55009;SDS011;40903;51.638;7.528;2022-07-29T11:29:14;5.87;;;2.83;;
55009;SDS011;40903;51.638;7.528;2022-07-29T11:31:44;6.60;;;2.67;;
55009;SDS011;40903;51.638;7.528;2022-07-29T11:34:29;3.73;;;2.30;;
55009;SDS011;40903;51.638;7.528;2022-07-29T11:39:32;5.70;;;2.70;;
55009;SDS011;40903;51.638;7.528;2022-07-29T11:44:54;4.83;;;2.60;;
55009;SDS011;40903;51.638;7.528;2022-07-29T11:47:21;5.53;;;2.37;;
55009;SDS011;40903;51.638;7.528;2022-07-29T11:49:48;3.57;;;2.23;;
55009;SDS011;40903;51.638;7.528;2022-07-29T11:52:16;6.13;;;2.70;;
55009;SDS011;40903;51.638;7.528;2022-07-29T11:54:42;7.00;;;2.73;;
55009;SDS011;40903;51.638;7.528;2022-07-29T11:57:08;3.03;;;1.90;;
55009;SDS011;40903;51.638;7.528;2022-07-29T11:59:40;4.17;;;2.00;;
55009;SDS011;40903;51.638;7.528;2022-07-29T12:02:09;3.67;;;2.40;;
55009;SDS011;40903;51.638;7.528;2022-07-29T12:04:48;4.63;;;2.73;;
55009;SDS011;40903;51.638;7.528;2022-07-29T12:07:14;4.80;;;2.47;;
55009;SDS011;40903;51.638;7.528;2022-07-29T12:09:39;4.67;;;2.30;;
55009;SDS011;40903;51.638;7.528;2022-07-29T12:12:04;9.00;;;2.90;;
55009;SDS011;40903;51.638;7.528;2022-07-29T12:14:33;3.90;;;2.37;;
55009;SDS011;40903;51.638;7.528;2022-07-29T12:16:58;4.57;;;2.37;;
55009;SDS011;40903;51.638;7.528;2022-07-29T12:19:25;3.27;;;2.47;;
55009;SDS011;40903;51.638;7.528;2022-07-29T12:21:51;3.30;;;2.33;;
55009;SDS011;40903;51.638;7.528;2022-07-29T12:24:19;6.23;;;2.73;;
55009;SDS011;40903;51.638;7.528;2022-07-29T12:26:52;3.47;;;2.33;;
55009;SDS011;40903;51.638;7.528;2022-07-29T12:29:22;6.57;;;3.00;;
55009;SDS011;40903;51.638;7.528;2022-07-29T12:31:51;4.60;;;2.40;;
55009;SDS011;40903;51.638;7.528;2022-07-29T12:34:19;3.73;;;2.80;;
55009;SDS011;40903;51.638;7.528;2022-07-29T12:36:47;5.43;;;2.60;;
55009;SDS011;40903;51.638;7.528;2022-07-29T12:39:13;4.17;;;2.30;;
55009;SDS011;40903;51.638;7.528;2022-07-29T12:41:43;4.23;;;2.83;;
55009;SDS011;40903;51.638;7.528;2022-07-29T12:44:09;6.40;;;2.70;;
55009;SDS011;40903;51.638;7.528;2022-07-29T12:46:34;4.10;;;2.60;;
55009;SDS011;40903;51.638;7.528;2022-07-29T12:49:00;3.47;;;3.03;;
55009;SDS011;40903;51.638;7.528;2022-07-29T12:51:29;8.40;;;2.93;;
55009;SDS011;40903;51.638;7.528;2022-07-29T12:54:12;19.93;;;5.10;;
55009;SDS011;40903;51.638;7.528;2022-07-29T12:56:40;6.33;;;3.90;;
55009;SDS011;40903;51.638;7.528;2022-07-29T12:59:20;34.13;;;8.70;;
55009;SDS011;40903;51.638;7.528;2022-07-29T13:01:48;9.60;;;3.87;;
55009;SDS011;40903;51.638;7.528;2022-07-29T13:04:28;9.37;;;3.67;;
55009;SDS011;40903;51.638;7.528;2022-07-29T13:07:04;8.90;;;3.33;;
55009;SDS011;40903;51.638;7.528;2022-07-29T13:12:08;5.57;;;3.00;;
55009;SDS011;40903;51.638;7.528;2022-07-29T13:14:45;7.33;;;3.50;;
55009;SDS011;40903;51.638;7.528;2022-07-29T13:17:13;6.73;;;3.77;;
55009;SDS011;40903;51.638;7.528;2022-07-29T13:19:44;6.90;;;3.50;;
55009;SDS011;40903;51.638;7.528;2022-07-29T13:22:11;7.03;;;3.00;;
55009;SDS011;40903;51.638;7.528;2022-07-29T13:24:45;6.57;;;3.17;;
55009;SDS011;40903;51.638;7.528;2022-07-29T13:27:27;7.67;;;3.20;;
55009;SDS011;40903;51.638;7.528;2022-07-29T13:29:57;5.17;;;3.37;;
55009;SDS011;40903;51.638;7.528;2022-07-29T13:32:24;4.63;;;3.47;;
55009;SDS011;40903;51.638;7.528;2022-07-29T13:34:51;4.13;;;2.93;;
55009;SDS011;40903;51.638;7.528;2022-07-29T13:37:16;4.53;;;3.23;;
55009;SDS011;40903;51.638;7.528;2022-07-29T13:39:42;6.10;;;4.00;;
55009;SDS011;40903;51.638;7.528;2022-07-29T13:42:07;4.57;;;2.90;;
55009;SDS011;40903;51.638;7.528;2022-07-29T13:44:33;4.97;;;3.50;;
55009;SDS011;40903;51.638;7.528;2022-07-29T13:46:59;7.23;;;3.60;;
55009;SDS011;40903;51.638;7.528;2022-07-29T13:49:24;4.07;;;3.03;;
55009;SDS011;40903;51.638;7.528;2022-07-29T13:51:50;5.83;;;3.63;;
55009;SDS011;40903;51.638;7.528;2022-07-29T13:54:16;4.70;;;3.80;;
55009;SDS011;40903;51.638;7.528;2022-07-29T13:56:41;3.80;;;3.37;;
55009;SDS011;40903;51.638;7.528;2022-07-29T13:59:06;5.47;;;3.77;;
55009;SDS011;40903;51.638;7.528;2022-07-29T14:01:33;7.63;;;3.93;;
55009;SDS011;40903;51.638;7.528;2022-07-29T14:03:59;5.30;;;3.53;;
55009;SDS011;40903;51.638;7.528;2022-07-29T14:06:24;5.17;;;3.20;;
55009;SDS011;40903;51.638;7.528;2022-07-29T14:08:50;4.47;;;2.97;;
55009;SDS011;40903;51.638;7.528;2022-07-29T14:11:15;4.17;;;3.40;;
55009;SDS011;40903;51.638;7.528;2022-07-29T14:13:40;5.33;;;3.07;;
55009;SDS011;40903;51.638;7.528;2022-07-29T14:16:06;4.60;;;3.10;;
55009;SDS011;40903;51.638;7.528;2022-07-29T14:18:32;6.23;;;3.33;;
55009;SDS011;40903;51.638;7.528;2022-07-29T14:20:57;9.30;;;3.50;;
55009;SDS011;40903;51.638;7.528;2022-07-29T14:23:23;3.70;;;2.83;;
55009;SDS011;40903;51.638;7.528;2022-07-29T14:25:48;8.23;;;3.43;;
55009;SDS011;40903;51.638;7.528;2022-07-29T14:28:13;5.40;;;3.00;;
55009;SDS011;40903;51.638;7.528;2022-07-29T14:30:39;2.87;;;2.33;;
55009;SDS011;40903;51.638;7.528;2022-07-29T14:33:04;7.30;;;2.40;;
55009;SDS011;40903;51.638;7.528;2022-07-29T14:35:30;6.97;;;2.67;;
55009;SDS011;40903;51.638;7.528;2022-07-29T14:37:55;4.80;;;2.40;;
55009;SDS011;40903;51.638;7.528;2022-07-29T14:40:20;6.67;;;2.67;;
55009;SDS011;40903;51.638;7.528;2022-07-29T14:42:46;6.67;;;2.73;;
55009;SDS011;40903;51.638;7.528;2022-07-29T14:45:11;36.47;;;5.53;;
55009;SDS011;40903;51.638;7.528;2022-07-29T14:47:37;9.70;;;3.40;;
55009;SDS011;40903;51.638;7.528;2022-07-29T14:50:03;5.37;;;3.40;;
55009;SDS011;40903;51.638;7.528;2022-07-29T14:52:29;5.07;;;2.37;;
55009;SDS011;40903;51.638;7.528;2022-07-29T14:54:55;7.33;;;2.80;;
55009;SDS011;40903;51.638;7.528;2022-07-29T14:57:20;3.80;;;2.77;;
55009;SDS011;40903;51.638;7.528;2022-07-29T14:59:45;4.60;;;2.50;;
55009;SDS011;40903;51.638;7.528;2022-07-29T15:02:11;3.97;;;2.60;;
55009;SDS011;40903;51.638;7.528;2022-07-29T15:04:36;3.57;;;2.60;;
55009;SDS011;40903;51.638;7.528;2022-07-29T15:07:01;5.90;;;2.60;;
55009;SDS011;40903;51.638;7.528;2022-07-29T15:09:27;5.20;;;2.53;;
55009;SDS011;40903;51.638;7.528;2022-07-29T15:11:52;4.50;;;2.40;;
55009;SDS011;40903;51.638;7.528;2022-07-29T15:14:18;6.10;;;2.63;;
55009;SDS011;40903;51.638;7.528;2022-07-29T15:16:43;5.67;;;2.90;;
55009;SDS011;40903;51.638;7.528;2022-07-29T15:19:08;4.33;;;2.60;;
55009;SDS011;40903;51.638;7.528;2022-07-29T15:21:34;7.50;;;3.53;;
55009;SDS011;40903;51.638;7.528;2022-07-29T15:24:00;4.43;;;2.80;;
55009;SDS011;40903;51.638;7.528;2022-07-29T15:26:25;4.03;;;2.30;;
55009;SDS011;40903;51.638;7.528;2022-07-29T15:28:51;2.87;;;2.10;;
55009;SDS011;40903;51.638;7.528;2022-07-29T15:31:16;5.33;;;2.60;;
55009;SDS011;40903;51.638;7.528;2022-07-29T15:33:43;5.50;;;2.47;;